Time;durP1;ratioP1;P1;durP2;ratioP2;P2;SDS_P1;SDS_P2;PMS_P1;PMS_P2;Temp;Humidity;BMP_temperature;BMP_pressure;BME280_temperature;BME280_humidity;BME280_pressure;Samples;Min_cycle;Max_cycle;Signal;HPM_P1;HPM_P2
2019/05/27 00:01:23;;;;;;;17.9;16.3;;;;;;;;;;;;;
2019/05/27 00:03:48;;;;;;;17.8;16.2;;;;;;;;;;;;;
2019/05/27 00:06:14;;;;;;;19.4;17.5;;;;;;;;;;;;;
2019/05/27 00:08:39;;;;;;;19;17.2;;;;;;;;;;;;;
2019/05/27 00:11:04;;;;;;;18.2;16.4;;;;;;;;;;;;;
2019/05/27 00:13:29;;;;;;;17.9;16.2;;;;;;;;;;;;;
2019/05/27 00:15:54;;;;;;;17;15.4;;;;;;;;;;;;;
2019/05/27 00:18:19;;;;;;;18.1;16.4;;;;;;;;;;;;;
2019/05/27 00:20:44;;;;;;;20.3;18.4;;;;;;;;;;;;;
2019/05/27 00:23:09;;;;;;;18.9;17.1;;;;;;;;;;;;;
2019/05/27 00:25:34;;;;;;;20.1;18.2;;;;;;;;;;;;;
2019/05/27 00:28:00;;;;;;;18.2;16.5;;;;;;;;;;;;;
2019/05/27 00:30:25;;;;;;;16.2;14.6;;;;;;;;;;;;;
2019/05/27 00:32:50;;;;;;;19.8;18.1;;;;;;;;;;;;;
2019/05/27 00:35:17;;;;;;;18.8;17.1;;;;;;;;;;;;;
2019/05/27 00:37:42;;;;;;;18.9;17.1;;;;;;;;;;;;;
2019/05/27 00:40:07;;;;;;;18.8;17.1;;;;;;;;;;;;;
2019/05/27 00:42:32;;;;;;;17.3;15.7;;;;;;;;;;;;;
2019/05/27 00:44:58;;;;;;;19;17.3;;;;;;;;;;;;;
2019/05/27 00:47:23;;;;;;;17.3;15.7;;;;;;;;;;;;;
2019/05/27 00:49:48;;;;;;;19.5;17.6;;;;;;;;;;;;;
2019/05/27 00:52:14;;;;;;;17.1;15.6;;;;;;;;;;;;;
2019/05/27 00:54:38;;;;;;;17.8;16.2;;;;;;;;;;;;;
2019/05/27 00:57:04;;;;;;;18.4;16.7;;;;;;;;;;;;;
2019/05/27 00:59:29;;;;;;;20.7;18.6;;;;;;;;;;;;;
2019/05/27 01:01:54;;;;;;;20.7;18.8;;;;;;;;;;;;;
2019/05/27 01:04:19;;;;;;;20.5;18.6;;;;;;;;;;;;;
2019/05/27 01:06:44;;;;;;;21.9;19.8;;;;;;;;;;;;;
2019/05/27 01:09:14;;;;;;;19.7;17.8;;;;;;;;;;;;;
2019/05/27 01:11:43;;;;;;;21;19;;;;;;;;;;;;;
2019/05/27 01:14:08;;;;;;;20.4;18.5;;;;;;;;;;;;;
2019/05/27 01:16:37;;;;;;;19.9;18.1;;;;;;;;;;;;;
2019/05/27 01:19:05;;;;;;;18.8;17;;;;;;;;;;;;;
2019/05/27 01:21:30;;;;;;;20.1;18.3;;;;;;;;;;;;;
2019/05/27 01:23:55;;;;;;;17.7;16.1;;;;;;;;;;;;;
2019/05/27 01:26:21;;;;;;;18.6;16.9;;;;;;;;;;;;;
2019/05/27 01:28:46;;;;;;;19.4;17.4;;;;;;;;;;;;;
2019/05/27 01:31:11;;;;;;;19.1;17.4;;;;;;;;;;;;;
2019/05/27 01:33:38;;;;;;;18.9;17.2;;;;;;;;;;;;;
2019/05/27 01:36:03;;;;;;;17.6;16;;;;;;;;;;;;;
2019/05/27 01:38:28;;;;;;;21.6;19.6;;;;;;;;;;;;;
2019/05/27 01:40:53;;;;;;;18.8;16.9;;;;;;;;;;;;;
2019/05/27 01:43:18;;;;;;;19.4;17.6;;;;;;;;;;;;;
2019/05/27 01:45:43;;;;;;;19.7;17.8;;;;;;;;;;;;;
2019/05/27 01:48:09;;;;;;;20.3;18.4;;;;;;;;;;;;;
2019/05/27 01:50:34;;;;;;;19.9;18;;;;;;;;;;;;;
2019/05/27 01:53:00;;;;;;;20.8;18.8;;;;;;;;;;;;;
2019/05/27 01:55:25;;;;;;;20.7;18.7;;;;;;;;;;;;;
2019/05/27 01:57:50;;;;;;;21.6;19.5;;;;;;;;;;;;;
2019/05/27 02:00:15;;;;;;;20.5;18.5;;;;;;;;;;;;;
2019/05/27 02:02:40;;;;;;;21.1;19.2;;;;;;;;;;;;;
2019/05/27 02:05:06;;;;;;;21.1;19.1;;;;;;;;;;;;;
2019/05/27 02:07:32;;;;;;;20.9;19;;;;;;;;;;;;;
2019/05/27 02:09:57;;;;;;;20.5;18.7;;;;;;;;;;;;;
2019/05/27 02:12:22;;;;;;;20.6;18.7;;;;;;;;;;;;;
2019/05/27 02:14:47;;;;;;;20.2;18.2;;;;;;;;;;;;;
2019/05/27 02:17:13;;;;;;;20.2;18.2;;;;;;;;;;;;;
2019/05/27 02:19:38;;;;;;;21;19;;;;;;;;;;;;;
2019/05/27 02:22:03;;;;;;;20.6;18.7;;;;;;;;;;;;;
2019/05/27 02:24:28;;;;;;;20.2;18.2;;;;;;;;;;;;;
2019/05/27 02:26:54;;;;;;;19.9;18;;;;;;;;;;;;;
2019/05/27 02:29:19;;;;;;;21.6;19.6;;;;;;;;;;;;;
2019/05/27 02:31:44;;;;;;;20.8;18.9;;;;;;;;;;;;;
2019/05/27 02:34:09;;;;;;;19.2;17.4;;;;;;;;;;;;;
2019/05/27 02:36:34;;;;;;;19.7;18;;;;;;;;;;;;;
2019/05/27 02:38:59;;;;;;;21.7;19.7;;;;;;;;;;;;;
2019/05/27 02:41:26;;;;;;;19.8;18;;;;;;;;;;;;;
2019/05/27 02:43:51;;;;;;;19.4;17.4;;;;;;;;;;;;;
2019/05/27 02:46:16;;;;;;;19.7;17.8;;;;;;;;;;;;;
2019/05/27 02:48:41;;;;;;;19.5;17.7;;;;;;;;;;;;;
2019/05/27 02:51:07;;;;;;;19.1;17.3;;;;;;;;;;;;;
2019/05/27 02:53:32;;;;;;;20.4;18.6;;;;;;;;;;;;;
2019/05/27 02:55:58;;;;;;;19.6;17.7;;;;;;;;;;;;;
2019/05/27 02:58:23;;;;;;;17.7;16;;;;;;;;;;;;;
2019/05/27 03:00:49;;;;;;;19.3;17.5;;;;;;;;;;;;;
2019/05/27 03:03:14;;;;;;;19.9;18.1;;;;;;;;;;;;;
2019/05/27 03:05:40;;;;;;;19.1;17.3;;;;;;;;;;;;;
2019/05/27 03:08:05;;;;;;;18.4;16.7;;;;;;;;;;;;;
2019/05/27 03:10:30;;;;;;;19.1;17.2;;;;;;;;;;;;;
2019/05/27 03:12:55;;;;;;;20;18.2;;;;;;;;;;;;;
2019/05/27 03:15:21;;;;;;;19.1;17.4;;;;;;;;;;;;;
2019/05/27 03:17:47;;;;;;;20.1;18.1;;;;;;;;;;;;;
2019/05/27 03:20:12;;;;;;;21.3;19.3;;;;;;;;;;;;;
2019/05/27 03:22:38;;;;;;;18.6;16.8;;;;;;;;;;;;;
2019/05/27 03:25:03;;;;;;;19.1;17.3;;;;;;;;;;;;;
2019/05/27 03:27:28;;;;;;;19.7;17.8;;;;;;;;;;;;;
2019/05/27 03:29:53;;;;;;;20;18.1;;;;;;;;;;;;;
2019/05/27 03:32:18;;;;;;;21.3;19.3;;;;;;;;;;;;;
2019/05/27 03:34:43;;;;;;;20.2;18.3;;;;;;;;;;;;;
2019/05/27 03:37:08;;;;;;;20.6;18.6;;;;;;;;;;;;;
2019/05/27 03:39:35;;;;;;;21.6;19.6;;;;;;;;;;;;;
2019/05/27 03:42:01;;;;;;;21.1;19;;;;;;;;;;;;;
2019/05/27 03:44:26;;;;;;;22.4;20.1;;;;;;;;;;;;;
2019/05/27 03:46:51;;;;;;;21.2;19;;;;;;;;;;;;;
2019/05/27 03:49:17;;;;;;;21;19;;;;;;;;;;;;;
2019/05/27 03:51:42;;;;;;;25.3;21.7;;;;;;;;;;;;;
2019/05/27 03:54:07;;;;;;;20.7;18.6;;;;;;;;;;;;;
2019/05/27 03:56:32;;;;;;;21.7;19.6;;;;;;;;;;;;;
2019/05/27 03:58:57;;;;;;;22.2;19.9;;;;;;;;;;;;;
2019/05/27 04:02:28;;;;;;;20.9;18.8;;;;;;;10.11;93.24219;955.8829;;;;
2019/05/27 04:04:53;;;;;;;20.9;19;;;;;;;10.12;93.35938;955.8397;;;;
2019/05/27 04:07:19;;;;;;;20.2;18.3;;;;;;;10.08;93.30566;955.8143;;;;
2019/05/27 04:09:44;;;;;;;19.9;17.9;;;;;;;10.12;93.18652;955.8948;;;;
2019/05/27 04:12:09;;;;;;;18.9;16.9;;;;;;;10.25;92.4541;955.8897;;;;
2019/05/27 04:14:34;;;;;;;19.4;17.6;;;;;;;10.33;92.21777;955.8892;;;;
2019/05/27 04:16:59;;;;;;;19.2;17.5;;;;;;;10.33;92.34473;955.8932;;;;
2019/05/27 04:19:24;;;;;;;18.1;16.3;;;;;;;10.35;92.26758;955.8994;;;;
2019/05/27 04:21:49;;;;;;;19;17.2;;;;;;;10.37;92.04102;955.8378;;;;
2019/05/27 04:24:15;;;;;;;18.2;16.6;;;;;;;10.46;91.86523;955.9084;;;;
2019/05/27 04:26:40;;;;;;;17.7;15.9;;;;;;;10.49;91.75586;955.9011;;;;
2019/05/27 04:29:05;;;;;;;18.4;16.1;;;;;;;10.58;91.52051;955.8653;;;;
2019/05/27 04:31:30;;;;;;;18.2;16.4;;;;;;;10.75;90.85254;955.8895;;;;
2019/05/27 04:33:56;;;;;;;18.6;16.8;;;;;;;10.83;90.78711;955.9105;;;;
2019/05/27 04:36:21;;;;;;;17.7;16.1;;;;;;;10.9;90.28418;955.8597;;;;
2019/05/27 04:38:46;;;;;;;16.7;15.2;;;;;;;11.05;89.67871;955.9583;;;;
2019/05/27 04:41:12;;;;;;;16.8;15.2;;;;;;;11.18;88.73535;955.9042;;;;
2019/05/27 04:43:37;;;;;;;17.7;16;;;;;;;;;;;;;
2019/05/27 04:46:02;;;;;;;16.8;15;;;;;;;;;;;;;
2019/05/27 04:48:27;;;;;;;17.1;15.6;;;;;;;;;;;;;
2019/05/27 04:50:53;;;;;;;16.9;15.2;;;;;;;;;;;;;
2019/05/27 04:53:18;;;;;;;16.2;14.7;;;;;;;;;;;;;
2019/05/27 04:55:46;;;;;;;15.2;13.8;;;;;;;;;;;;;
2019/05/27 04:58:11;;;;;;;15.8;14.4;;;;;;;;;;;;;
2019/05/27 05:00:37;;;;;;;16.1;14.6;;;;;;;;;;;;;
2019/05/27 05:03:02;;;;;;;15.1;13.5;;;;;;;;;;;;;
2019/05/27 05:05:27;;;;;;;14.9;13.4;;;;;;;;;;;;;
2019/05/27 05:08:01;;;;;;;16.7;15;;;;;;;;;;;;;
2019/05/27 05:10:29;;;;;;;16.5;14.8;;;;;;;;;;;;;
2019/05/27 05:12:54;;;;;;;15;13.6;;;;;;;;;;;;;
2019/05/27 05:15:25;;;;;;;15.3;13.8;;;;;;;;;;;;;
2019/05/27 05:17:56;;;;;;;15.2;13.7;;;;;;;;;;;;;
2019/05/27 05:20:21;;;;;;;14.9;13.5;;;;;;;;;;;;;
2019/05/27 05:22:46;;;;;;;14.2;12.8;;;;;;;;;;;;;
2019/05/27 05:25:12;;;;;;;15.1;13.7;;;;;;;;;;;;;
2019/05/27 05:27:37;;;;;;;14.3;12.8;;;;;;;;;;;;;
2019/05/27 05:30:03;;;;;;;13.9;12.6;;;;;;;;;;;;;
2019/05/27 05:32:28;;;;;;;16.2;13.7;;;;;;;;;;;;;
2019/05/27 05:34:53;;;;;;;18.6;13.3;;;;;;;;;;;;;
2019/05/27 05:37:18;;;;;;;15;13.4;;;;;;;;;;;;;
2019/05/27 05:39:46;;;;;;;12.7;11.5;;;;;;;;;;;;;
2019/05/27 05:42:11;;;;;;;14.1;12.6;;;;;;;;;;;;;
2019/05/27 05:44:36;;;;;;;14.2;12.7;;;;;;;;;;;;;
2019/05/27 05:47:01;;;;;;;14.6;11.2;;;;;;;;;;;;;
2019/05/27 05:49:27;;;;;;;13.2;12;;;;;;;;;;;;;
2019/05/27 05:51:52;;;;;;;12.6;11.3;;;;;;;;;;;;;
2019/05/27 05:54:19;;;;;;;13.5;12.1;;;;;;;;;;;;;
2019/05/27 05:56:44;;;;;;;11.9;10.8;;;;;;;;;;;;;
2019/05/27 05:59:09;;;;;;;13;11.4;;;;;;;;;;;;;
2019/05/27 06:01:34;;;;;;;12.8;10.9;;;;;;;;;;;;;
2019/05/27 06:03:59;;;;;;;12.1;11;;;;;;;;;;;;;
2019/05/27 06:06:24;;;;;;;12.7;11.3;;;;;;;;;;;;;
2019/05/27 06:08:50;;;;;;;11.6;10.5;;;;;;;;;;;;;
2019/05/27 06:11:15;;;;;;;14.3;12.9;;;;;;;;;;;;;
2019/05/27 06:13:40;;;;;;;13.3;12;;;;;;;;;;;;;
2019/05/27 06:16:09;;;;;;;13.1;11.9;;;;;;;;;;;;;
2019/05/27 06:18:35;;;;;;;13.4;12.1;;;;;;;;;;;;;
2019/05/27 06:20:59;;;;;;;14.5;13.1;;;;;;;;;;;;;
2019/05/27 06:23:24;;;;;;;16.2;13.1;;;;;;;;;;;;;
2019/05/27 06:25:50;;;;;;;13.9;12.3;;;;;;;;;;;;;
2019/05/27 06:28:14;;;;;;;14.8;13.4;;;;;;;;;;;;;
2019/05/27 06:30:40;;;;;;;14.4;13.1;;;;;;;;;;;;;
2019/05/27 06:33:05;;;;;;;13.7;12.2;;;;;;;;;;;;;
2019/05/27 06:35:30;;;;;;;13.6;11.8;;;;;;;;;;;;;
2019/05/27 06:37:55;;;;;;;14.3;12.9;;;;;;;;;;;;;
2019/05/27 06:40:22;;;;;;;13.4;11.6;;;;;;;;;;;;;
2019/05/27 06:42:47;;;;;;;12.9;11.4;;;;;;;;;;;;;
2019/05/27 06:45:12;;;;;;;12.3;10.1;;;;;;;;;;;;;
2019/05/27 06:47:38;;;;;;;16.6;11.9;;;;;;;;;;;;;
2019/05/27 06:50:05;;;;;;;14.3;11.2;;;;;;;;;;;;;
2019/05/27 06:52:30;;;;;;;12.2;10.9;;;;;;;;;;;;;
2019/05/27 06:54:55;;;;;;;12.7;11.3;;;;;;;;;;;;;
2019/05/27 06:57:21;;;;;;;12.1;10.3;;;;;;;;;;;;;
2019/05/27 06:59:47;;;;;;;11.7;10.5;;;;;;;;;;;;;
2019/05/27 07:02:13;;;;;;;11.2;10.2;;;;;;;;;;;;;
2019/05/27 07:04:43;;;;;;;11.8;10.3;;;;;;;;;;;;;
2019/05/27 07:07:06;;;;;;;11.8;10;;;;;;;;;;;;;
2019/05/27 07:09:31;;;;;;;13.3;10.3;;;;;;;;;;;;;
2019/05/27 07:11:56;;;;;;;12.3;9.5;;;;;;;;;;;;;
2019/05/27 07:14:26;;;;;;;11.5;9.4;;;;;;;;;;;;;
2019/05/27 07:16:50;;;;;;;10.5;9.4;;;;;;;;;;;;;
2019/05/27 07:19:18;;;;;;;9.8;8.8;;;;;;;;;;;;;
2019/05/27 07:21:40;;;;;;;11.8;8.9;;;;;;;;;;;;;
2019/05/27 07:24:06;;;;;;;12.5;9.5;;;;;;;;;;;;;
2019/05/27 07:26:31;;;;;;;11.5;9.3;;;;;;;;;;;;;
2019/05/27 07:28:57;;;;;;;9.1;8.2;;;;;;;;;;;;;
2019/05/27 07:31:26;;;;;;;10.6;9;;;;;;;;;;;;;
2019/05/27 07:33:48;;;;;;;9;7.9;;;;;;;;;;;;;
2019/05/27 07:36:14;;;;;;;8.7;7.9;;;;;;;;;;;;;
2019/05/27 07:38:40;;;;;;;8.7;7.9;;;;;;;;;;;;;
2019/05/27 07:41:05;;;;;;;8.2;7.1;;;;;;;;;;;;;
2019/05/27 07:43:30;;;;;;;8.1;7.4;;;;;;;;;;;;;
2019/05/27 07:45:55;;;;;;;7.8;7.1;;;;;;;;;;;;;
2019/05/27 07:48:21;;;;;;;6.6;6;;;;;;;;;;;;;
2019/05/27 07:50:48;;;;;;;7.1;6.4;;;;;;;;;;;;;
2019/05/27 07:53:12;;;;;;;5.6;5.1;;;;;;;;;;;;;
2019/05/27 07:55:38;;;;;;;6.2;5.6;;;;;;;;;;;;;
2019/05/27 07:58:03;;;;;;;7.6;6.2;;;;;;;;;;;;;
2019/05/27 08:00:30;;;;;;;6.7;6.1;;;;;;;;;;;;;
2019/05/27 08:02:55;;;;;;;4.9;4.5;;;;;;;;;;;;;
2019/05/27 08:05:20;;;;;;;5.1;4.6;;;;;;;;;;;;;
2019/05/27 08:07:44;;;;;;;6.1;5.5;;;;;;;;;;;;;
2019/05/27 08:10:10;;;;;;;5.7;5.1;;;;;;;;;;;;;
2019/05/27 08:12:35;;;;;;;4.6;4;;;;;;;;;;;;;
2019/05/27 08:15:00;;;;;;;5.4;4.1;;;;;;;;;;;;;
2019/05/27 08:17:26;;;;;;;4.4;4;;;;;;;;;;;;;
2019/05/27 08:19:51;;;;;;;4.5;3.9;;;;;;;;;;;;;
2019/05/27 08:22:16;;;;;;;4.4;4;;;;;;;;;;;;;
2019/05/27 08:24:41;;;;;;;4.2;3.8;;;;;;;;;;;;;
2019/05/27 08:27:07;;;;;;;2.5;2.2;;;;;;;;;;;;;
2019/05/27 08:29:32;;;;;;;3.5;2.8;;;;;;;;;;;;;
2019/05/27 08:31:59;;;;;;;4.1;2.3;;;;;;;;;;;;;
2019/05/27 08:34:22;;;;;;;4.7;4;;;;;;;;;;;;;
2019/05/27 08:36:47;;;;;;;5.6;4.8;;;;;;;;;;;;;
2019/05/27 08:39:14;;;;;;;5.4;4;;;;;;;;;;;;;
2019/05/27 08:41:39;;;;;;;3.2;2.9;;;;;;;;;;;;;
2019/05/27 08:44:06;;;;;;;4.5;3.7;;;;;;;;;;;;;
2019/05/27 08:46:31;;;;;;;4.2;3.5;;;;;;;;;;;;;
2019/05/27 08:48:56;;;;;;;3.9;2.8;;;;;;;;;;;;;
2019/05/27 08:51:23;;;;;;;3.1;2.7;;;;;;;;;;;;;
2019/05/27 08:53:48;;;;;;;2.5;2.3;;;;;;;;;;;;;
2019/05/27 08:56:16;;;;;;;4.2;2.6;;;;;;;;;;;;;
2019/05/27 08:58:41;;;;;;;4;2.8;;;;;;;;;;;;;
2019/05/27 09:01:09;;;;;;;4;2.8;;;;;;;;;;;;;
2019/05/27 09:03:32;;;;;;;2.8;2.4;;;;;;;;;;;;;
2019/05/27 09:06:01;;;;;;;2.9;2.7;;;;;;;;;;;;;
2019/05/27 09:08:26;;;;;;;3.7;3;;;;;;;;;;;;;
2019/05/27 09:10:51;;;;;;;3.6;3.3;;;;;;;;;;;;;
2019/05/27 09:13:16;;;;;;;3.4;3.1;;;;;;;;;;;;;
2019/05/27 09:15:43;;;;;;;5;3.6;;;;;;;;;;;;;
2019/05/27 09:18:09;;;;;;;4.5;3.9;;;;;;;;;;;;;
2019/05/27 09:20:36;;;;;;;3.9;3.6;;;;;;;;;;;;;
2019/05/27 09:22:59;;;;;;;3.9;3.6;;;;;;;;;;;;;
2019/05/27 09:25:24;;;;;;;4.1;3.4;;;;;;;;;;;;;
2019/05/27 09:27:49;;;;;;;3.3;3;;;;;;;;;;;;;
2019/05/27 09:30:17;;;;;;;3.8;2.8;;;;;;;;;;;;;
2019/05/27 09:32:46;;;;;;;3.7;3.3;;;;;;;;;;;;;
2019/05/27 09:35:20;;;;;;;3.6;3.2;;;;;;;;;;;;;
2019/05/27 09:37:45;;;;;;;3.7;3.4;;;;;;;;;;;;;
2019/05/27 09:40:10;;;;;;;3.7;3.3;;;;;;;;;;;;;
2019/05/27 09:42:35;;;;;;;4.5;3.6;;;;;;;;;;;;;
2019/05/27 09:45:00;;;;;;;4.3;3.9;;;;;;;;;;;;;
2019/05/27 09:47:26;;;;;;;4.2;3.8;;;;;;;;;;;;;
2019/05/27 09:49:52;;;;;;;4.1;3.7;;;;;;;;;;;;;
2019/05/27 09:52:17;;;;;;;5;4.3;;;;;;;;;;;;;
2019/05/27 09:54:42;;;;;;;6.2;4.4;;;;;;;;;;;;;
2019/05/27 09:57:07;;;;;;;3.7;3.4;;;;;;;;;;;;;
2019/05/27 09:59:32;;;;;;;4.9;3.2;;;;;;;;;;;;;
2019/05/27 10:02:02;;;;;;;4.9;3.7;;;;;;;;;;;;;
2019/05/27 10:04:30;;;;;;;4.4;3.8;;;;;;;;;;;;;
2019/05/27 10:06:56;;;;;;;5.4;4.8;;;;;;;;;;;;;
2019/05/27 10:09:21;;;;;;;5.8;5;;;;;;;;;;;;;
2019/05/27 10:11:43;;;;;;;5.9;4.5;;;;;;;;;;;;;
2019/05/27 10:14:12;;;;;;;4.9;4.5;;;;;;;;;;;;;
2019/05/27 10:16:38;;;;;;;5.1;4.6;;;;;;;;;;;;;
2019/05/27 10:19:00;;;;;;;5;4.6;;;;;;;;;;;;;
2019/05/27 10:21:25;;;;;;;5.2;4.7;;;;;;;;;;;;;
2019/05/27 10:23:50;;;;;;;5.6;4.8;;;;;;;;;;;;;
2019/05/27 10:26:21;;;;;;;5.2;4.2;;;;;;;;;;;;;
2019/05/27 10:28:44;;;;;;;5.1;4.6;;;;;;;;;;;;;
2019/05/27 10:31:12;;;;;;;4.9;4.4;;;;;;;;;;;;;
2019/05/27 10:33:37;;;;;;;4.4;4;;;;;;;;;;;;;
2019/05/27 10:36:02;;;;;;;6.3;4.6;;;;;;;;;;;;;
2019/05/27 10:38:27;;;;;;;4.8;4.3;;;;;;;;;;;;;
2019/05/27 10:40:53;;;;;;;4.9;3.8;;;;;;;;;;;;;
2019/05/27 10:43:20;;;;;;;6.2;4.5;;;;;;;;;;;;;
2019/05/27 10:45:44;;;;;;;4.4;4;;;;;;;;;;;;;
2019/05/27 10:48:10;;;;;;;4.6;4.1;;;;;;;;;;;;;
2019/05/27 10:50:36;;;;;;;5.2;4.7;;;;;;;;;;;;;
2019/05/27 10:53:03;;;;;;;6.1;4.6;;;;;;;;;;;;;
2019/05/27 10:55:28;;;;;;;5.9;4.4;;;;;;;;;;;;;
2019/05/27 10:57:53;;;;;;;6.2;5.1;;;;;;;;;;;;;
2019/05/27 11:00:20;;;;;;;5.4;4.5;;;;;;;;;;;;;
2019/05/27 11:02:46;;;;;;;5.7;4.9;;;;;;;;;;;;;
2019/05/27 11:05:09;;;;;;;6.8;5;;;;;;;;;;;;;
2019/05/27 11:07:35;;;;;;;5.8;5.2;;;;;;;;;;;;;
2019/05/27 11:10:01;;;;;;;6.3;4.8;;;;;;;;;;;;;
2019/05/27 11:12:25;;;;;;;5.6;4.9;;;;;;;;;;;;;
2019/05/27 11:14:51;;;;;;;5.4;4.9;;;;;;;;;;;;;
2019/05/27 11:17:17;;;;;;;5.6;4.6;;;;;;;;;;;;;
2019/05/27 11:19:42;;;;;;;7.5;4.4;;;;;;;;;;;;;
2019/05/27 11:22:10;;;;;;;5.6;4.6;;;;;;;;;;;;;
2019/05/27 11:24:35;;;;;;;5.8;5.1;;;;;;;;;;;;;
2019/05/27 11:27:00;;;;;;;6.3;5.1;;;;;;;;;;;;;
2019/05/27 11:29:26;;;;;;;4.9;4.4;;;;;;;;;;;;;
2019/05/27 11:31:52;;;;;;;6.4;4.9;;;;;;;;;;;;;
2019/05/27 11:34:17;;;;;;;4.7;4;;;;;;;;;;;;;
2019/05/27 11:36:46;;;;;;;4.4;4;;;;;;;;;;;;;
2019/05/27 11:39:11;;;;;;;6;3.7;;;;;;;;;;;;;
2019/05/27 11:41:36;;;;;;;4.6;3.6;;;;;;;;;;;;;
2019/05/27 11:44:02;;;;;;;4.3;3.8;;;;;;;;;;;;;
2019/05/27 11:46:28;;;;;;;4.7;3.7;;;;;;;;;;;;;
2019/05/27 11:48:53;;;;;;;4.2;3.8;;;;;;;;;;;;;
2019/05/27 11:51:19;;;;;;;5.3;4.2;;;;;;;;;;;;;
2019/05/27 11:53:44;;;;;;;5.1;3.9;;;;;;;;;;;;;
2019/05/27 11:56:10;;;;;;;4.8;3.8;;;;;;;;;;;;;
2019/05/27 11:58:34;;;;;;;4.6;4.1;;;;;;;;;;;;;
2019/05/27 12:01:00;;;;;;;6.7;3.5;;;;;;;;;;;;;
2019/05/27 12:03:25;;;;;;;5;3.7;;;;;;;;;;;;;
2019/05/27 12:05:50;;;;;;;4.4;3.6;;;;;;;;;;;;;
2019/05/27 12:08:16;;;;;;;5.5;4;;;;;;;;;;;;;
2019/05/27 12:10:40;;;;;;;4;3.5;;;;;;;;;;;;;
2019/05/27 12:13:06;;;;;;;5.1;3.5;;;;;;;;;;;;;
2019/05/27 12:15:31;;;;;;;4;3.6;;;;;;;;;;;;;
2019/05/27 12:17:57;;;;;;;5.7;3.7;;;;;;;;;;;;;
2019/05/27 12:20:22;;;;;;;3.8;3.5;;;;;;;;;;;;;
2019/05/27 12:22:47;;;;;;;5;4.4;;;;;;;;;;;;;
2019/05/27 12:25:12;;;;;;;5.3;4.3;;;;;;;;;;;;;
2019/05/27 12:27:37;;;;;;;5.4;4.1;;;;;;;;;;;;;
2019/05/27 12:30:02;;;;;;;4.4;4;;;;;;;;;;;;;
2019/05/27 12:32:27;;;;;;;3.9;3.6;;;;;;;;;;;;;
2019/05/27 12:34:52;;;;;;;4.2;3.3;;;;;;;;;;;;;
2019/05/27 12:37:18;;;;;;;3.9;3.4;;;;;;;;;;;;;
2019/05/27 12:39:43;;;;;;;5.1;3.5;;;;;;;;;;;;;
2019/05/27 12:42:09;;;;;;;4.2;3.5;;;;;;;;;;;;;
2019/05/27 12:44:34;;;;;;;4;3.6;;;;;;;;;;;;;
2019/05/27 12:47:01;;;;;;;4.1;3.7;;;;;;;;;;;;;
2019/05/27 12:49:26;;;;;;;5.3;3.8;;;;;;;;;;;;;
2019/05/27 12:51:51;;;;;;;4.3;3.9;;;;;;;;;;;;;
2019/05/27 12:54:17;;;;;;;3.7;3.3;;;;;;;;;;;;;
2019/05/27 12:56:46;;;;;;;4.2;3.8;;;;;;;;;;;;;
2019/05/27 12:59:11;;;;;;;3.7;3.4;;;;;;;;;;;;;
2019/05/27 13:01:37;;;;;;;3.5;3.2;;;;;;;;;;;;;
2019/05/27 13:04:05;;;;;;;4;3.6;;;;;;;;;;;;;
2019/05/27 13:06:29;;;;;;;5.6;3.5;;;;;;;;;;;;;
2019/05/27 13:08:54;;;;;;;4.1;3.7;;;;;;;;;;;;;
2019/05/27 13:11:19;;;;;;;4.1;3.3;;;;;;;;;;;;;
2019/05/27 13:13:45;;;;;;;5.2;3.6;;;;;;;;;;;;;
2019/05/27 13:16:10;;;;;;;3.6;3.3;;;;;;;;;;;;;
2019/05/27 13:18:36;;;;;;;3.6;3.1;;;;;;;;;;;;;
2019/05/27 13:21:00;;;;;;;5.5;3.7;;;;;;;;;;;;;
2019/05/27 13:23:26;;;;;;;4.4;3.3;;;;;;;;;;;;;
2019/05/27 13:25:52;;;;;;;4;3.6;;;;;;;;;;;;;
2019/05/27 13:28:21;;;;;;;4;3.3;;;;;;;;;;;;;
2019/05/27 13:30:45;;;;;;;3.9;3.6;;;;;;;;;;;;;
2019/05/27 13:33:11;;;;;;;5.3;4;;;;;;;;;;;;;
2019/05/27 13:35:38;;;;;;;4.7;3.5;;;;;;;;;;;;;
2019/05/27 13:38:04;;;;;;;4.3;4;;;;;;;;;;;;;
2019/05/27 13:40:29;;;;;;;4;3.7;;;;;;;;;;;;;
2019/05/27 13:42:53;;;;;;;4.2;3.4;;;;;;;;;;;;;
2019/05/27 13:45:19;;;;;;;4.4;3.8;;;;;;;;;;;;;
2019/05/27 13:47:45;;;;;;;4.7;3.7;;;;;;;;;;;;;
2019/05/27 13:50:10;;;;;;;4.8;3.5;;;;;;;;;;;;;
2019/05/27 13:52:34;;;;;;;4.8;3.4;;;;;;;;;;;;;
2019/05/27 13:55:00;;;;;;;5.2;3.6;;;;;;;;;;;;;
2019/05/27 13:57:25;;;;;;;4.2;3.2;;;;;;;;;;;;;
2019/05/27 13:59:51;;;;;;;4;3.6;;;;;;;;;;;;;
2019/05/27 14:02:15;;;;;;;3.7;3.2;;;;;;;;;;;;;
2019/05/27 14:04:40;;;;;;;3.3;3;;;;;;;;;;;;;
2019/05/27 14:07:05;;;;;;;4.3;3.5;;;;;;;;;;;;;
2019/05/27 14:09:30;;;;;;;4.6;3.6;;;;;;;;;;;;;
2019/05/27 14:11:55;;;;;;;4.4;3.3;;;;;;;;;;;;;
2019/05/27 14:14:20;;;;;;;5.3;3.2;;;;;;;;;;;;;
2019/05/27 14:16:46;;;;;;;4.7;3.7;;;;;;;;;;;;;
2019/05/27 14:19:17;;;;;;;3.9;3.6;;;;;;;;;;;;;
2019/05/27 14:21:39;;;;;;;3.7;3.4;;;;;;;;;;;;;
2019/05/27 14:24:05;;;;;;;4.8;3.1;;;;;;;;;;;;;
2019/05/27 14:26:30;;;;;;;3.4;3.1;;;;;;;;;;;;;
2019/05/27 14:28:55;;;;;;;3.6;3.1;;;;;;;;;;;;;
2019/05/27 14:31:20;;;;;;;3.8;3.4;;;;;;;;;;;;;
2019/05/27 14:33:45;;;;;;;3.9;3.5;;;;;;;;;;;;;
2019/05/27 14:36:10;;;;;;;3.6;3.3;;;;;;;;;;;;;
2019/05/27 14:38:36;;;;;;;3.8;3.5;;;;;;;;;;;;;
2019/05/27 14:41:01;;;;;;;5.3;3.6;;;;;;;;;;;;;
2019/05/27 14:43:26;;;;;;;3.7;3.4;;;;;;;;;;;;;
2019/05/27 14:45:51;;;;;;;5.6;3.7;;;;;;;;;;;;;
2019/05/27 14:48:19;;;;;;;4.1;3.7;;;;;;;;;;;;;
2019/05/27 14:50:43;;;;;;;3.7;3.4;;;;;;;;;;;;;
2019/05/27 14:53:08;;;;;;;3.8;3.4;;;;;;;;;;;;;
2019/05/27 14:55:33;;;;;;;4.4;3.3;;;;;;;;;;;;;
2019/05/27 14:58:03;;;;;;;3.4;3.1;;;;;;;;;;;;;
2019/05/27 15:00:27;;;;;;;3.5;3.2;;;;;;;;;;;;;
2019/05/27 15:02:53;;;;;;;3.8;3.4;;;;;;;;;;;;;
2019/05/27 15:05:18;;;;;;;3.7;3.4;;;;;;;;;;;;;
2019/05/27 15:07:43;;;;;;;5.2;3.5;;;;;;;;;;;;;
2019/05/27 15:10:08;;;;;;;5.5;3.4;;;;;;;;;;;;;
2019/05/27 15:12:33;;;;;;;4.6;3;;;;;;;;;;;;;
2019/05/27 15:14:58;;;;;;;7.5;3.7;;;;;;;;;;;;;
2019/05/27 15:17:23;;;;;;;5.1;3.6;;;;;;;;;;;;;
2019/05/27 15:19:51;;;;;;;3.6;3.3;;;;;;;;;;;;;
2019/05/27 15:22:15;;;;;;;3.8;3.4;;;;;;;;;;;;;
2019/05/27 15:24:42;;;;;;;6.2;3.5;;;;;;;;;;;;;
2019/05/27 15:27:07;;;;;;;7;3.3;;;;;;;;;;;;;
2019/05/27 15:29:31;;;;;;;4.1;3.5;;;;;;;;;;;;;
2019/05/27 15:31:56;;;;;;;4.6;3.5;;;;;;;;;;;;;
2019/05/27 15:34:22;;;;;;;3.8;3.3;;;;;;;;;;;;;
2019/05/27 15:36:47;;;;;;;4.2;3.3;;;;;;;;;;;;;
2019/05/27 15:39:13;;;;;;;4.9;3.8;;;;;;;;;;;;;
2019/05/27 15:41:39;;;;;;;5.6;3.5;;;;;;;;;;;;;
2019/05/27 15:44:04;;;;;;;4.8;3.7;;;;;;;;;;;;;
2019/05/27 15:46:29;;;;;;;5.4;4.4;;;;;;;;;;;;;
2019/05/27 15:48:55;;;;;;;4.5;4.1;;;;;;;;;;;;;
2019/05/27 15:51:21;;;;;;;4.2;3.8;;;;;;;;;;;;;
2019/05/27 15:53:46;;;;;;;3.4;3.1;;;;;;;;;;;;;
2019/05/27 15:56:11;;;;;;;4;3.6;;;;;;;;;;;;;
2019/05/27 15:58:37;;;;;;;5;3.9;;;;;;;;;;;;;
2019/05/27 16:01:02;;;;;;;4.5;4.1;;;;;;;;;;;;;
2019/05/27 16:03:28;;;;;;;4.6;3.6;;;;;;;;;;;;;
2019/05/27 16:05:53;;;;;;;4.2;3.8;;;;;;;;;;;;;
2019/05/27 16:08:18;;;;;;;4;3.6;;;;;;;;;;;;;
2019/05/27 16:10:43;;;;;;;4.6;3.8;;;;;;;;;;;;;
2019/05/27 16:13:08;;;;;;;5.5;4.6;;;;;;;;;;;;;
2019/05/27 16:15:33;;;;;;;4.6;4.2;;;;;;;;;;;;;
2019/05/27 16:18:00;;;;;;;5.8;4.8;;;;;;;;;;;;;
2019/05/27 16:20:25;;;;;;;4.9;3.9;;;;;;;;;;;;;
2019/05/27 16:22:50;;;;;;;7.1;4.9;;;;;;;;;;;;;
2019/05/27 16:25:15;;;;;;;4.8;4.3;;;;;;;;;;;;;
2019/05/27 16:27:43;;;;;;;6.1;5.1;;;;;;;;;;;;;
2019/05/27 16:30:08;;;;;;;5.3;4.7;;;;;;;;;;;;;
2019/05/27 16:32:33;;;;;;;5.1;4.6;;;;;;;;;;;;;
2019/05/27 16:34:58;;;;;;;5.7;4.8;;;;;;;;;;;;;
2019/05/27 16:37:24;;;;;;;5.6;4.7;;;;;;;;;;;;;
2019/05/27 16:39:50;;;;;;;7.5;5.2;;;;;;;;;;;;;
2019/05/27 16:42:16;;;;;;;5.8;5.1;;;;;;;;;;;;;
2019/05/27 16:44:41;;;;;;;6.8;5.6;;;;;;;;;;;;;
2019/05/27 16:47:07;;;;;;;5.6;5.1;;;;;;;;;;;;;
2019/05/27 16:49:32;;;;;;;5.5;4.7;;;;;;;;;;;;;
2019/05/27 16:51:57;;;;;;;6.1;5.1;;;;;;;;;;;;;
2019/05/27 16:54:22;;;;;;;5.7;4.9;;;;;;;;;;;;;
2019/05/27 16:56:47;;;;;;;6;4.7;;;;;;;;;;;;;
2019/05/27 16:59:12;;;;;;;5.9;5.3;;;;;;;;;;;;;
2019/05/27 17:01:37;;;;;;;6.3;5.3;;;;;;;;;;;;;
2019/05/27 17:04:04;;;;;;;6.9;4.8;;;;;;;;;;;;;
2019/05/27 17:06:29;;;;;;;7;5.5;;;;;;;;;;;;;
2019/05/27 17:08:55;;;;;;;8.2;5.7;;;;;;;;;;;;;
2019/05/27 17:11:19;;;;;;;7.4;5.7;;;;;;;;;;;;;
2019/05/27 17:13:45;;;;;;;6.9;5.7;;;;;;;;;;;;;
2019/05/27 17:16:10;;;;;;;7.4;5.4;;;;;;;;;;;;;
2019/05/27 17:18:35;;;;;;;6.2;5.6;;;;;;;;;;;;;
2019/05/27 17:21:00;;;;;;;5.8;5.3;;;;;;;;;;;;;
2019/05/27 17:23:25;;;;;;;6.3;5.7;;;;;;;;;;;;;
2019/05/27 17:25:50;;;;;;;6.5;5.9;;;;;;;;;;;;;
2019/05/27 17:28:15;;;;;;;6.8;6.2;;;;;;;;;;;;;
2019/05/27 17:30:40;;;;;;;7;6.3;;;;;;;;;;;;;
2019/05/27 17:34:42;;;;;;;7.5;6.3;;;;;;;19.23;60.27539;951.4796;;;;
2019/05/27 17:37:08;;;;;;;7.9;6.6;;;;;;;19.2;61.23633;951.4881;;;;
2019/05/27 17:39:33;;;;;;;7.4;6.1;;;;;;;19.2;61.97949;951.3883;;;;
2019/05/27 17:41:58;;;;;;;7;6.4;;;;;;;19.12;61.79004;951.3922;;;;
2019/05/27 17:44:23;;;;;;;7.7;6.9;;;;;;;19.13;61.14551;951.399;;;;
2019/05/27 17:46:48;;;;;;;7.3;6.6;;;;;;;19.03;61.87305;951.3674;;;;
2019/05/27 17:49:13;;;;;;;8;7.2;;;;;;;18.92;62.41113;951.358;;;;
2019/05/27 17:51:39;;;;;;;8.7;7;;;;;;;18.93;61.94043;951.3347;;;;
2019/05/27 17:54:04;;;;;;;7.9;7.1;;;;;;;18.84;61.99902;951.2528;;;;
2019/05/27 17:56:30;;;;;;;7.8;7;;;;;;;18.71;62.28711;951.2597;;;;
2019/05/27 17:58:56;;;;;;;7.8;7;;;;;;;18.71;62.46094;951.3387;;;;
2019/05/27 18:01:29;;;;;;;7.5;6.7;;;;;;;18.79;61.35742;951.3389;;;;
2019/05/27 18:03:55;;;;;;;7.5;6.8;;;;;;;18.77;61.41309;951.2816;;;;
2019/05/27 18:06:20;;;;;;;7.4;6.4;;;;;;;18.77;61.53125;951.2894;;;;
2019/05/27 18:08:45;;;;;;;7.8;7;;;;;;;18.72;61.57031;951.3362;;;;
2019/05/27 18:11:10;;;;;;;7.8;6.8;;;;;;;18.79;60.93359;951.3349;;;;
2019/05/27 18:13:35;;;;;;;8.1;7.3;;;;;;;18.7;61.99023;951.3528;;;;
2019/05/27 18:16:01;;;;;;;7.6;6.8;;;;;;;18.53;62.7666;951.3689;;;;
2019/05/27 18:18:25;;;;;;;8.1;7.3;;;;;;;18.44;63.72852;951.4347;;;;
2019/05/27 18:20:51;;;;;;;7.5;6.8;;;;;;;18.26;65.66406;951.5129;;;;
2019/05/27 18:23:17;;;;;;;7.1;6.4;;;;;;;18.35;65.72461;951.4913;;;;
2019/05/27 18:25:43;;;;;;;8.3;7.1;;;;;;;18.25;68.16309;951.6538;;;;
2019/05/27 18:28:08;;;;;;;8.5;7.5;;;;;;;18.13;68.03906;951.663;;;;
2019/05/27 18:30:33;;;;;;;9.4;8.5;;;;;;;18.11;66.05078;951.6964;;;;
2019/05/27 18:32:58;;;;;;;9.1;8.3;;;;;;;17.55;69.5918;951.6699;;;;
2019/05/27 18:35:36;;;;;;;10.7;9.7;;;;;;;17.25;73.57422;951.7404;;;;
2019/05/27 18:38:01;;;;;;;11.5;10.4;;;;;;;16.72;78.28418;951.7645;;;;
2019/05/27 18:40:27;;;;;;;13.2;12;;;;;;;16.3;82.3252;951.7767;;;;
2019/05/27 18:42:52;;;;;;;14.9;13.5;;;;;;;15.99;84.71973;951.7255;;;;
2019/05/27 18:45:19;;;;;;;16.9;15.3;;;;;;;15.67;86.96973;951.7751;;;;
2019/05/27 18:47:44;;;;;;;20.6;18.6;;;;;;;15.46;89.68262;951.752;;;;
2019/05/27 18:50:10;;;;;;;22.7;20.6;;;;;;;15.29;91.63086;951.8356;;;;
2019/05/27 18:52:36;;;;;;;22.7;20.6;;;;;;;15.29;92.50391;951.7673;;;;
2019/05/27 18:55:01;;;;;;;24.5;22;;;;;;;15.23;92.59961;951.7786;;;;
2019/05/27 18:57:27;;;;;;;22;20;;;;;;;15.16;92.89746;951.8237;;;;
2019/05/27 18:59:52;;;;;;;23.6;21.3;;;;;;;15.07;93.13477;951.8184;;;;
2019/05/27 19:02:17;;;;;;;24.8;22.6;;;;;;;15.03;94.20898;951.8672;;;;
2019/05/27 19:04:42;;;;;;;28.6;25.8;;;;;;;15;95.25488;951.8702;;;;
2019/05/27 19:07:07;;;;;;;28.2;25.2;;;;;;;14.87;95.38867;951.9959;;;;
2019/05/27 19:09:35;;;;;;;29.2;26.2;;;;;;;14.74;94.7998;952.0392;;;;
2019/05/27 19:12:00;;;;;;;30.6;27.5;;;;;;;14.72;96.40625;952.0581;;;;
2019/05/27 19:14:25;;;;;;;35.7;32.1;;;;;;;14.7;97.64648;952.0703;;;;